This is the latest recevied weather packets stored in our database for station/object 9M4RBN-3. If no packets are shown the sender has not sent any weather packets the latest 10 day(s).
| Time | Temp. | Humidity | Pressure | Rain* | Wind** | Luminosity | Snow |
|---|---|---|---|---|---|---|---|
| 1777510288 | 26.11° C | 74% | 1015.7 hPa | - | - | - | - |
| 1777509388 | 25.56° C | 72% | 1015.8 hPa | - | - | - | - |
| 1777508488 | 25.56° C | 70% | 1015.7 hPa | - | - | - | - |
| 1777507588 | 24.44° C | 64% | 1015.5 hPa | - | - | - | - |
| 1777506687 | 24.44° C | 52% | 1015.3 hPa | - | - | - | - |
| 1777505821 | 25° C | 55% | 1015.4 hPa | - | - | - | - |
| 1777505788 | 25° C | 55% | 1015.4 hPa | - | - | - | - |
| 1777504887 | 25.56° C | 66% | 1015.2 hPa | - | - | - | - |
| 1777503987 | 25.56° C | 76% | 1015.1 hPa | - | - | - | - |
| 1777503087 | 25° C | 71% | 1015 hPa | - | - | - | - |
| 1777502187 | 23.89° C | 51% | 1015 hPa | - | - | - | - |
| 1777501287 | 24.44° C | 48% | 1014.9 hPa | - | - | - | - |
| 1777500387 | 24.44° C | 48% | 1014.8 hPa | - | - | - | - |
| 1777499487 | 24.44° C | 47% | 1014.6 hPa | - | - | - | - |
| 1777498587 | 25° C | 48% | 1014.4 hPa | - | - | - | - |
| 1777497687 | 25° C | 48% | 1014.5 hPa | - | - | - | - |
| 1777496787 | 25.56° C | 47% | 1014.4 hPa | - | - | - | - |
| 1777495887 | 26.11° C | 49% | 1014.6 hPa | - | - | - | - |
| 1777494987 | 26.67° C | 52% | 1014.7 hPa | - | - | - | - |
| 1777494087 | 27.22° C | 63% | 1014.5 hPa | - | - | - | - |
| 1777493187 | 27.78° C | 77% | 1014.4 hPa | - | - | - | - |
| 1777492287 | 27.78° C | 77% | 1014.6 hPa | - | - | - | - |
| 1777491387 | 27.78° C | 76% | 1014.7 hPa | - | - | - | - |
| 1777490487 | 27.78° C | 76% | 1014.7 hPa | - | - | - | - |
| 1777489586 | 27.78° C | 75% | 1014.7 hPa | - | - | - | - |
* Rain since midnight (hover to see other rain measurements)
** Current wind speed in m/s (hover to see current wind gust speed)